• Join FlightAware (Why Join?)
  • Login
  • US Flag 
08:00PM EDT


 

Airport Tracker/Info


-or-


 

Live Flight TrackerFlight Track Log ✈ VH-TVL ✈ 14-May-2013 ✈ YPJT / JAD - YPJT / JAD

Flight Track Log - Related Links

Times and Time Zones

All times are in EDT time to prevent confusion due to time zone crossing. See the VH-TVL flight status page for this flight to view local times or setup timezone preferences in your user account.

Time Position Orientation Groundspeed Altitude Reporting Facility
EDT Latitude Longitude Course Direction KTS MPH feet Rate Location/Type
08:40PM -32.0795 115.8846 241° Southwest 64 74 1,000  Level Aus ATC (RADAR)
08:40PM -32.0858 115.8708 241° Southwest 101 116 800 -600 Descending Aus ATC (RADAR)
08:41PM -32.0940 115.8630 219° Southwest 70 81 400 -420 Descending Aus ATC (RADAR)
08:42PM -32.1015 115.8701 142° Southeast 56 64 300 -180 Descending Aus ATC (RADAR)
08:42PM -32.0977 115.8760 52° Northeast 39 45 200 -180 Descending Aus ATC (RADAR)
08:43PM -32.0967 115.8780 61° Northeast 9 10 100 -60 Descending Aus ATC (RADAR)
08:44PM -32.0969 115.8784 114° Southeast 1 1 100  Level Aus ATC (RADAR)
08:45PM -32.0980 115.8796 138° Southeast 2 2 100  Level Aus ATC (RADAR)
08:45PM -32.0975 115.8828 79° East 27 31 100 600 Level Aus ATC (RADAR)
08:46PM -32.0915 115.8922 53° Northeast 58 67 600 540 Climbing Aus ATC (RADAR)
08:47PM -32.0968 115.9090 111° Southeast 71 82 900 240 Climbing Aus ATC (RADAR)
08:47PM -32.1057 115.9223 128° Southeast 85 98 1,000 120 Climbing Aus ATC (RADAR)
08:48PM -32.1156 115.9414 122° Southeast 89 102 1,100  Climbing Aus ATC (RADAR)
08:48PM -32.1212 115.9527 120° Southeast 91 105 1,000  Descending Aus ATC (RADAR)
08:49PM -32.1282 115.9676 119° Southeast 88 101 1,100 180 Climbing Aus ATC (RADAR)
08:50PM -32.1406 115.9989 115° Southeast 85 98 1,400 300 Climbing Aus ATC (RADAR)
08:51PM -32.1446 116.0084 116° Southeast 78 90 1,600 360 Climbing Aus ATC (RADAR)
08:51PM -32.1473 116.0215 104° East 67 77 1,800 300 Climbing Aus ATC (RADAR)
08:52PM -32.1450 116.0398 82° East 62 71 2,100 300 Climbing Aus ATC (RADAR)
08:53PM -32.1431 116.0518 79° East 62 71 2,300 180 Climbing Aus ATC (RADAR)
08:53PM -32.1443 116.0705 94° East 75 86 2,400 60 Climbing Aus ATC (RADAR)
08:54PM -32.1460 116.0818 100° East 82 94 2,400 -60 Level Aus ATC (RADAR)
08:55PM -32.1506 116.1174 99° East 87 100 2,300 60 Descending Aus ATC (RADAR)
08:56PM -32.1461 116.1284 64° Northeast 76 87 2,600 60 Climbing Aus ATC (RADAR)
08:56PM -32.1317 116.1311 North 88 101 2,400 -120 Descending Aus ATC (RADAR)
08:57PM -32.1153 116.1376 19° North 82 94 2,500 60 Climbing Aus ATC (RADAR)
08:58PM -32.1027 116.1439 23° Northeast 83 96 2,500 60 Level Aus ATC (RADAR)
08:58PM -32.0868 116.1521 23° Northeast 85 98 2,600  Climbing Aus ATC (RADAR)
08:59PM -32.0780 116.1574 27° Northeast 86 99 2,500 -120 Descending Aus ATC (RADAR)
08:59PM -32.0659 116.1652 29° Northeast 86 99 2,500  Level Aus ATC (RADAR)
09:00PM -32.0427 116.1800 28° Northeast 80 92 2,600 -120 Climbing Aus ATC (RADAR)
09:01PM -32.0348 116.1870 37° Northeast 82 94 2,400  Descending Aus ATC (RADAR)
09:01PM -32.0251 116.1973 42° Northeast 78 90 2,600 60 Climbing Aus ATC (RADAR)
09:02PM -32.0130 116.2129 48° Northeast 83 96 2,500 -120 Descending Aus ATC (RADAR)
09:03PM -32.0013 116.2251 42° Northeast 85 98 2,500  Level Aus ATC (RADAR)
09:04PM -31.9868 116.2357 32° Northeast 84 97 2,500  Level Aus ATC (RADAR)
09:04PM -31.9784 116.2415 30° Northeast 83 96 2,500  Level Aus ATC (RADAR)
09:05PM -31.9521 116.2561 25° Northeast 82 94 2,500  Level Aus ATC (RADAR)
09:06PM -31.9433 116.2609 25° Northeast 83 96 2,500 -120 Level Aus ATC (RADAR)
09:06PM -31.9340 116.2661 26° Northeast 87 100 2,400 -120 Descending Aus ATC (RADAR)
09:07PM -31.9238 116.2763 40° Northeast 82 94 2,400  Level Aus ATC (RADAR)
09:07PM -31.9134 116.2913 51° Northeast 76 87 2,400 60 Level Aus ATC (RADAR)
09:08PM -31.9063 116.3038 56° Northeast 76 87 2,500 60 Climbing Aus ATC (RADAR)
09:09PM -31.8956 116.3185 50° Northeast 77 89 2,500  Level Aus ATC (RADAR)
09:09PM -31.8879 116.3290 49° Northeast 83 96 2,500  Level Aus ATC (RADAR)
09:10PM -31.8693 116.3518 46° Northeast 82 94 2,500 60 Level Aus ATC (RADAR)
09:11PM -31.8611 116.3591 37° Northeast 72 83 2,600 180 Climbing Aus ATC (RADAR)
09:11PM -31.8504 116.3668 31° Northeast 75 86 2,700 120 Climbing Aus ATC (RADAR)
09:12PM -31.8369 116.3744 25° Northeast 80 92 2,800  Climbing Aus ATC (RADAR)
09:13PM -31.8218 116.3803 19° North 86 99 2,700 -120 Descending Aus ATC (RADAR)
09:13PM -31.8074 116.3883 25° Northeast 86 99 2,700 -120 Level Aus ATC (RADAR)
09:14PM -31.7983 116.3923 20° North 85 98 2,600 -120 Descending Aus ATC (RADAR)
09:14PM -31.7858 116.3990 25° Northeast 84 97 2,600 -60 Level Aus ATC (RADAR)
09:16PM -31.7517 116.4131 19° North 84 97 2,500 -120 Descending Aus ATC (RADAR)
09:16PM -31.7446 116.4163 21° North 83 96 2,400 -120 Descending Aus ATC (RADAR)
09:17PM -31.7334 116.4225 25° Northeast 77 89 2,400  Level Aus ATC (RADAR)
09:18PM -31.7167 116.4315 24° Northeast 80 92 2,400 60 Level Aus ATC (RADAR)
09:18PM -31.7041 116.4365 19° North 81 93 2,500 120 Climbing Aus ATC (RADAR)
09:19PM -31.6865 116.4442 20° North 80 92 2,600 60 Climbing Aus ATC (RADAR)
09:20PM -31.6779 116.4499 29° Northeast 84 97 2,600 -240 Level Aus ATC (RADAR)
09:21PM -31.6482 116.4720 32° Northeast 87 100 2,200 -240 Descending Aus ATC (RADAR)
09:21PM -31.6424 116.4740 16° North 86 99 2,200 -120 Level Aus ATC (RADAR)
09:22PM -31.6294 116.4774 13° North 81 93 2,100 60 Descending Aus ATC (RADAR)
09:23PM -31.6133 116.4839 19° North 74 85 2,300 180 Climbing Aus ATC (RADAR)
09:23PM -31.6004 116.4784 340° North 85 98 2,400 60 Climbing Aus ATC (RADAR)
09:24PM -31.5823 116.4681 334° Northwest 95 109 2,400 -120 Level Aus ATC (RADAR)
09:24PM -31.5716 116.4647 345° North 94 108 2,300 -60 Descending Aus ATC (RADAR)
09:26PM -31.5735 116.4981 94° East 86 99 2,300  Level Aus ATC (RADAR)
09:26PM -31.5780 116.5096 115° Southeast 90 104 2,300 180 Level Aus ATC (RADAR)
09:27PM -31.5850 116.5231 121° Southeast 80 92 2,500 120 Climbing Aus ATC (RADAR)
09:28PM -31.5951 116.5471 116° Southeast 93 107 2,500  Level Aus ATC (RADAR)
09:28PM -31.6010 116.5646 112° Southeast 96 110 2,500  Level Aus ATC (RADAR)
09:29PM -31.6083 116.5869 111° Southeast 96 110 2,500 -120 Level Aus ATC (RADAR)
09:29PM -31.6122 116.5997 110° East 98 113 2,400 -240 Descending Aus ATC (RADAR)
09:30PM -31.6210 116.6261 111° Southeast 93 107 2,200 -180 Descending Aus ATC (RADAR)
09:31PM -31.6259 116.6380 116° Southeast 93 107 2,200 120 Level Aus ATC (RADAR)
09:31PM -31.6294 116.6490 110° East 85 98 2,300  Climbing Aus ATC (RADAR)
09:32PM -31.6312 116.6645 98° East 81 93 2,200 -420 Descending Aus ATC (RADAR)
09:32PM -31.6283 116.6823 79° East 85 98 1,800  Descending Aus ATC (RADAR)
09:36PM -31.7269 116.6357 North 2,500 60 Climbing Aus ATC (Calculated)
09:37PM -31.7269 116.6357 North 2,500 -60 Level Aus ATC (Calculated)
09:39PM -31.7682 116.6161 202° Southwest  Level FlightAware Approximate
09:39PM -31.6514 116.6376 202° Southwest 125 144 2,400  Level Aus ATC (RADAR)
09:39PM -31.6702 116.6289 202° Southwest 125 144 2,500 120 Climbing Aus ATC (RADAR)
09:40PM -31.6913 116.6169 206° Southwest 128 147 2,600 120 Climbing Aus ATC (RADAR)
09:41PM -31.7199 116.6033 202° Southwest 123 142 2,700 60 Climbing Aus ATC (RADAR)
09:42PM -31.7413 116.5939 200° South 124 143 2,700 60 Level Aus ATC (RADAR)
09:42PM -31.7596 116.5854 202° Southwest 121 139 2,800 120 Climbing Aus ATC (RADAR)
09:43PM -31.7867 116.5723 202° Southwest 128 147 2,900 60 Climbing Aus ATC (RADAR)
09:43PM -31.8008 116.5651 204° Southwest 131 151 2,900 -120 Level Aus ATC (RADAR)
09:44PM -31.8203 116.5567 200° South 129 148 2,800  Descending Aus ATC (RADAR)
09:45PM -31.8450 116.5479 197° South 122 140 2,900 120 Climbing Aus ATC (RADAR)
09:45PM -31.8639 116.5403 199° South 125 144 3,000  Climbing Aus ATC (RADAR)
09:46PM -31.9024 116.5247 199° South 124 143 3,000  Level Aus ATC (RADAR)
09:47PM -31.9159 116.5185 201° Southwest 124 143 3,000  Level Aus ATC (RADAR)
09:47PM -31.9356 116.5094 201° Southwest 129 148 3,000  Level Aus ATC (RADAR)
09:48PM -31.9604 116.4982 201° Southwest 130 150 3,000  Level Aus ATC (RADAR)
09:49PM -31.9791 116.4887 203° Southwest 127 146 3,000  Level Aus ATC (RADAR)
09:50PM -32.0079 116.4761 200° South 130 150 3,000  Level Aus ATC (RADAR)
09:50PM -32.0197 116.4704 202° Southwest 134 154 3,000  Level Aus ATC (RADAR)
09:51PM -32.0398 116.4617 200° South 131 151 3,000  Level Aus ATC (RADAR)
09:52PM -32.0794 116.4429 202° Southwest 128 147 3,100 60 Climbing Aus ATC (RADAR)
09:52PM -32.0932 116.4370 200° South 128 147 3,100 -240 Level Aus ATC (RADAR)
09:53PM -32.1140 116.4282 200° South 134 154 2,900 -180 Descending Aus ATC (RADAR)
09:53PM -32.1425 116.4154 201° Southwest 131 151 2,900 60 Level Aus ATC (RADAR)
09:54PM -32.1621 116.4069 200° South 129 148 3,000 120 Climbing Aus ATC (RADAR)
09:55PM -32.1873 116.3970 198° South 129 148 3,100 60 Climbing Aus ATC (RADAR)
09:55PM -32.2013 116.3920 197° South 128 147 3,100 -120 Level Aus ATC (RADAR)
09:56PM -32.2380 116.3764 200° South 131 151 3,000 -120 Descending Aus ATC (RADAR)
09:57PM -32.2552 116.3703 197° South 127 146 3,000  Level Aus ATC (RADAR)
09:57PM -32.2635 116.3668 199° South 126 145 3,000  Level Aus ATC (RADAR)
09:58PM -32.2837 116.3597 197° South 129 148 3,000 60 Level Aus ATC (RADAR)
09:58PM -32.3113 116.3493 198° South 125 144 3,100 60 Climbing Aus ATC (RADAR)
09:59PM -32.3308 116.3424 197° South 125 144 3,100 -180 Level Aus ATC (RADAR)
10:00PM -32.3601 116.3328 195° South 130 150 2,900 -180 Descending Aus ATC (RADAR)
10:00PM -32.3749 116.3278 196° South 130 150 2,900 120 Level Aus ATC (RADAR)
10:01PM -32.4129 116.3121 199° South 120 138 3,100 60 Climbing Aus ATC (RADAR)
10:02PM -32.4192 116.2928 249° West 120 138 3,000 -120 Descending Aus ATC (RADAR)
10:02PM -32.4221 116.2760 258° West 122 140 3,000  Level Aus ATC (RADAR)
10:03PM -32.4265 116.2534 257° West 119 137 3,000 -120 Level Aus ATC (RADAR)
10:04PM -32.4320 116.2243 257° West 120 138 2,900  Descending Aus ATC (RADAR)
10:04PM -32.4356 116.2015 259° West 118 136 3,000 60 Climbing Aus ATC (RADAR)
10:05PM -32.4405 116.1717 259° West 120 138 3,000 -120 Level Aus ATC (RADAR)
10:05PM -32.4435 116.1554 258° West 120 138 2,900 -60 Descending Aus ATC (RADAR)
10:07PM -32.4506 116.1075 260° West 116 133 2,900  Level Aus ATC (RADAR)
10:07PM -32.4545 116.0898 255° West 110 127 2,900  Level Aus ATC (RADAR)
10:08PM -32.4593 116.0680 255° West 113 130 2,900  Level Aus ATC (RADAR)
10:08PM -32.4632 116.0483 257° West 103 119 2,900 -180 Level Aus ATC (RADAR)
10:09PM -32.4666 116.0252 260° West 117 135 2,700 -480 Descending Aus ATC (RADAR)
10:10PM -32.4713 115.9932 260° West 125 144 2,300 -300 Descending Aus ATC (RADAR)
10:10PM -32.4738 115.9767 260° West 119 137 2,400 60 Climbing Aus ATC (RADAR)
10:11PM -32.4780 115.9534 258° West 121 139 2,400 -60 Level Aus ATC (RADAR)
10:12PM -32.4938 115.9005 250° West 121 139 2,300 -60 Descending Aus ATC (RADAR)
10:12PM -32.4978 115.8835 254° West 124 143 2,300  Level Aus ATC (RADAR)
10:13PM -32.5045 115.8588 252° West 114 131 2,300 -120 Level Aus ATC (RADAR)
10:14PM -32.4975 115.8346 289° West 109 125 2,200  Descending Aus ATC (RADAR)
10:14PM -32.4829 115.8317 351° North 93 107 2,300 180 Climbing Aus ATC (RADAR)
10:15PM -32.4715 115.8295 351° North 85 98 2,400 180 Climbing Aus ATC (RADAR)
10:16PM -32.4588 115.8270 350° North 79 91 2,500 -60 Climbing Aus ATC (RADAR)
10:17PM -32.4305 115.8205 349° North 88 101 2,300 -60 Descending Aus ATC (RADAR)
10:17PM -32.4172 115.8202 359° North 83 96 2,400 120 Climbing Aus ATC (RADAR)
10:18PM -32.4038 115.8164 347° North 85 98 2,500 120 Climbing Aus ATC (RADAR)
10:19PM -32.3860 115.8129 351° North 87 100 2,600 -120 Climbing Aus ATC (RADAR)
10:19PM -32.3736 115.8118 356° North 89 102 2,400 -240 Descending Aus ATC (RADAR)
10:20PM -32.3589 115.8088 350° North 89 102 2,400  Level Aus ATC (RADAR)
10:20PM -32.3401 115.8051 351° North 93 107 2,400  Level Aus ATC (RADAR)
10:21PM -32.3266 115.8013 346° North 85 98 2,400 -120 Level Aus ATC (RADAR)
10:22PM -32.3014 115.7981 354° North 87 100 2,300 -240 Descending Aus ATC (RADAR)
10:22PM -32.2908 115.7959 350° North 90 104 2,100 -480 Descending Aus ATC (RADAR)
10:23PM -32.2736 115.7927 351° North 94 108 1,800 -480 Descending Aus ATC (RADAR)
10:24PM -32.2549 115.7899 353° North 100 115 1,500 -300 Descending Aus ATC (RADAR)
10:24PM -32.2370 115.7867 351° North 96 110 1,400  Descending Aus ATC (RADAR)
10:25PM -32.2171 115.7836 353° North 93 107 1,500 60 Climbing Aus ATC (RADAR)
10:26PM -32.2057 115.7829 357° North 96 110 1,500  Level Aus ATC (RADAR)
10:26PM -32.1909 115.7800 350° North 93 107 1,500  Level Aus ATC (RADAR)
10:27PM -32.1642 115.7791 358° North 91 105 1,500  Level Aus ATC (RADAR)
10:28PM -32.1526 115.7848 23° Northeast 89 102 1,500  Level Aus ATC (RADAR)
10:28PM -32.1393 115.7930 27° Northeast 92 106 1,500  Level Aus ATC (RADAR)
10:29PM -32.1168 115.8045 23° Northeast 97 112 1,500 -180 Level Aus ATC (RADAR)
10:30PM -32.1027 115.8113 22° Northeast 95 109 1,300 -300 Descending Aus ATC (RADAR)
10:31PM -32.1001 115.8338 82° East 91 105 1,100 -300 Descending Aus ATC (RADAR)
10:31PM -32.1005 115.8491 92° East 79 91 900 -420 Descending Aus ATC (RADAR)
10:32PM -32.0991 115.8721 86° East 60 69 400 -480 Descending Aus ATC (RADAR)
10:33PM -32.0955 115.8799 61° Northeast 58 67 200 -300 Descending Aus ATC (RADAR)
10:33PM -32.0907 115.8824 23° Northeast 39 45 100 -180 Descending Aus ATC (RADAR)